Carmo do Rio Claro, Brazil
Current Conditions -  °F | °C
As of 11:00 PM on Wednesday 22 Oct 2014 (Local Time) from SBYS Reporting Station
Scattered Clouds Scattered Clouds  
Wind Chill: 68°   Ceiling: Unl
Heat Index: 68°   Visibility: 6mi
Dew Point: 57°   Wind: 16mph
Humidity: 68%   Direction: 190°S
Pressure: 30.09"   Gusts: NA
Location:  20.97°S, 46.1°W
Report Text: SBYS 230100Z 19014KT 9999 FEW040 SCT090 20/14 Q1019
Loading
Personal Weather Stations






























Interactive Weather Map
Tropical Storm Tracking
New forecast layout! Learn more

10-Day Weather Forecast

Advertisements
Track Severe Weather on mobile